LELC/MJV METAR and TAF weather

Enter ICAO airport designator
Station Type Date Time Source
LELC METAR 2022/08/12 14:30 UTC NOAA

LELC 121430Z 12006KT 050V160 CAVOK 31/25 Q1013 NOSIG


Station Type Date Time Source
LELC Decoded METAR 2022/08/12 14:30 UTC NOAA

Murcia / San Javier, Spain (LELC) 37-47N 000-48W 3M
Aug 12, 2022 - 10:30 AM EDT / 2022.08.12 1430 UTC
Wind: from the ESE (120 degrees) at 7 MPH (6 KT) (direction variable):0
Visibility: greater than 7 mile(s):0
Temperature: 87 F (31 C)
Heat index: 97.5 F (36.4 C):1
Dew Point: 77 F (25 C)
Relative Humidity: 70%
Pressure (altimeter): 29.91 in. Hg (1013 hPa)
ob: LELC 121430Z 12006KT 050V160 CAVOK 31/25 Q1013 NOSIG
cycle: 14

Station Type Date Time Source
LELC TAF 2022/08/12 12:27 UTC NOAA

TAF LELC 121100Z 1212/1312 12010KT CAVOK TX32/1213Z TN23/1305Z
BECMG 1220/1223 24006KT

Example: see airport list